Time;durP1;ratioP1;P1;durP2;ratioP2;P2;SDS_P1;SDS_P2;PMS_P1;PMS_P2;Temp;Humidity;BMP_temperature;BMP_pressure;BME280_temperature;BME280_humidity;BME280_pressure;Samples;Min_cycle;Max_cycle;Signal;HPM_P1;HPM_P2
2022/01/14 00:05:42;;;;;;;6.55;3.88;;;;;;;;;;5038471;28;20028;-70
2022/01/14 00:08:10;;;;;;;6.82;4.20;;;14.30;65.20;;;;;;5030884;28;20057;-71
2022/01/14 00:10:36;;;;;;;5.60;3.40;;;14.30;65.40;;;;;;5030884;28;20136;-71
2022/01/14 00:13:12;;;;;;;5.72;3.75;;;14.20;65.20;;;;;;5030372;28;20069;-71
2022/01/14 00:15:39;;;;;;;6.40;3.88;;;13.70;64.90;;;;;;5030690;28;20108;-71
2022/01/14 00:18:06;;;;;;;7.35;3.72;;;;;;;;;;5030438;28;20136;-71
2022/01/14 00:20:33;;;;;;;5.13;3.67;;;14.10;65.20;;;;;;5030767;28;20084;-71
2022/01/14 00:23:00;;;;;;;5.95;4.00;;;;;;;;;;5031562;28;20125;-70
2022/01/14 00:33:41;;;;;;;5.50;3.47;;;14.20;65.40;;;;;;5030687;28;20049;-71
2022/01/14 00:36:08;;;;;;;5.90;3.60;;;;;;;;;;5031474;28;20558;-71
2022/01/14 00:38:35;;;;;;;5.05;3.28;;;14.10;65.60;;;;;;5030566;28;20410;-71
2022/01/14 00:41:03;;;;;;;5.22;3.40;;;14.10;65.40;;;;;;5030470;28;20076;-71
2022/01/14 00:43:30;;;;;;;6.75;3.70;;;14.10;63.40;;;;;;5030321;28;20132;-71
2022/01/14 00:45:57;;;;;;;5.00;3.42;;;;;;;;;;5030284;28;20550;-71
2022/01/14 00:48:24;;;;;;;6.22;3.58;;;14.10;65.70;;;;;;5030535;28;20410;-71
2022/01/14 00:50:51;;;;;;;5.40;3.55;;;;;;;;;;5030319;28;20140;-71
2022/01/14 00:53:17;;;;;;;5.65;3.38;;;14.10;65.50;;;;;;5019879;28;20136;-71
2022/01/14 00:55:58;;;;;;;5.60;3.40;;;;;;;;;;5014402;28;20171;-71
2022/01/14 01:01:10;;;;;;;;;;;14.10;57.60;;;;;;5014865;28;20495;-71
2022/01/14 01:03:37;;;;;;;5.60;3.70;;;13.80;65.50;;;;;;5014249;28;19943;-71
2022/01/14 01:06:04;;;;;;;4.53;3.10;;;14.00;65.70;;;;;;5015215;28;20132;-71
2022/01/14 01:08:32;;;;;;;6.32;3.60;;;;;;;;;;5014451;28;20057;-71
2022/01/14 01:10:59;;;;;;;4.57;3.35;;;;;;;;;;5014316;28;20101;-71
2022/01/14 01:13:32;;;;;;;5.85;3.50;;;14.00;65.50;;;;;;5014085;28;20137;-71
2022/01/14 01:15:59;;;;;;;5.03;3.28;;;14.00;65.40;;;;;;5014095;28;20447;-71
2022/01/14 01:18:25;;;;;;;5.70;3.10;;;14.00;58.10;;;;;;5014147;28;20054;-71
2022/01/14 01:20:53;;;;;;;5.50;3.30;;;;;;;;;;5015224;28;20148;-71
2022/01/14 01:23:20;;;;;;;4.78;3.45;;;;;;;;;;5013774;28;20053;-71
2022/01/14 01:25:50;;;;;;;7.00;3.58;;;13.90;65.70;;;;;;5013712;28;20140;-71
2022/01/14 01:28:17;;;;;;;4.38;3.00;;;;;;;;;;5014135;28;20064;-71
2022/01/14 01:31:04;;;;;;;4.65;3.10;;;14.10;65.50;;;;;;5014065;28;20137;-71
2022/01/14 01:33:31;;;;;;;5.20;2.95;;;14.00;65.60;;;;;;5013880;28;20116;-71
2022/01/14 01:35:58;;;;;;;5.38;3.05;;;;;;;;;;5014669;28;20132;-71
2022/01/14 01:38:25;;;;;;;5.25;2.83;;;14.10;63.00;;;;;;5013640;28;20136;-71
2022/01/14 01:40:52;;;;;;;5.80;3.08;;;13.70;60.80;;;;;;5013662;28;20162;-71
2022/01/14 01:43:21;;;;;;;3.50;2.50;;;14.00;65.60;;;;;;5013567;28;20045;-71
2022/01/14 01:45:50;;;;;;;5.38;2.88;;;14.00;65.40;;;;;;5013258;28;20058;-71
2022/01/14 01:48:17;;;;;;;5.43;3.17;;;14.00;65.40;;;;;;5014658;28;20053;-71
2022/01/14 01:50:44;;;;;;;4.43;2.80;;;;;;;;;;5013534;28;20046;-71
2022/01/14 01:53:11;;;;;;;3.83;2.80;;;14.10;65.60;;;;;;5027026;28;20081;-71
2022/01/14 01:55:37;;;;;;;3.85;2.70;;;13.70;65.10;;;;;;5033073;28;20140;-71
2022/01/14 01:58:04;;;;;;;5.38;3.17;;;;;;;;;;5033367;28;20049;-71
2022/01/14 02:00:32;;;;;;;4.18;2.88;;;;;;;;;;5033155;28;20052;-71
2022/01/14 02:03:00;;;;;;;4.50;2.53;;;14.20;60.10;;;;;;5031629;28;20056;-71
2022/01/14 02:05:27;;;;;;;3.97;2.72;;;;;;;;;;5033989;28;20128;-71
2022/01/14 02:07:54;;;;;;;4.32;2.70;;;14.10;65.60;;;;;;5033216;28;20136;-71
2022/01/14 02:10:22;;;;;;;4.25;3.00;;;14.20;57.10;;;;;;5032954;28;20057;-71
2022/01/14 02:12:52;;;;;;;6.07;3.10;;;;;;;;;;5032756;28;20399;-71
2022/01/14 02:15:42;;;;;;;4.32;2.65;;;;;;;;;;5032921;28;20061;-71
2022/01/14 02:18:31;;;;;;;6.38;2.70;;;14.10;62.90;;;;;;5032970;28;20521;-71
2022/01/14 02:23:47;;;;;;;3.40;2.47;;;14.00;65.10;;;;;;5032330;28;20057;-71
2022/01/14 02:26:14;;;;;;;3.90;2.40;;;14.00;65.40;;;;;;5032465;28;20068;-71
2022/01/14 02:28:41;;;;;;;3.97;2.80;;;14.00;56.60;;;;;;5032460;28;20479;-71
2022/01/14 02:31:08;;;;;;;3.65;2.55;;;;;;;;;;5032614;28;20061;-71
2022/01/14 02:33:35;;;;;;;3.88;2.63;;;;;;;;;;5032480;28;20140;-71
2022/01/14 02:36:04;;;;;;;4.50;3.05;;;14.20;65.10;;;;;;5033398;28;20132;-71
2022/01/14 02:38:31;;;;;;;4.07;2.65;;;14.20;65.00;;;;;;5032340;28;20141;-71
2022/01/14 02:40:58;;;;;;;4.50;2.28;;;;;;;;;;5032506;28;20053;-71
2022/01/14 02:43:25;;;;;;;4.38;2.50;;;14.20;65.20;;;;;;5032103;28;20049;-71
2022/01/14 02:45:55;;;;;;;5.15;2.50;;;;;;;;;;5032942;28;20513;-71
2022/01/14 02:48:22;;;;;;;4.30;2.55;;;14.20;56.50;;;;;;5032242;28;20533;-71
2022/01/14 02:50:56;;;;;;;4.20;2.50;;;14.30;64.90;;;;;;5031878;28;20132;-71
2022/01/14 02:53:28;;;;;;;4.25;2.60;;;14.30;65.20;;;;;;5017806;28;20054;-71
2022/01/14 02:55:56;;;;;;;3.85;2.47;;;14.20;64.80;;;;;;5012263;28;20145;-71
2022/01/14 02:58:23;;;;;;;3.50;2.38;;;14.10;64.80;;;;;;5012028;28;20157;-71
2022/01/14 03:00:50;;;;;;;3.58;2.22;;;;;;;;;;5012456;28;20049;-71
2022/01/14 03:03:17;;;;;;;4.72;2.50;;;;;;;;;;5011768;28;20060;-71
2022/01/14 03:05:44;;;;;;;3.72;2.20;;;;;;;;;;5012000;28;20582;-71
2022/01/14 03:08:11;;;;;;;3.85;2.40;;;14.30;61.40;;;;;;5013376;28;20057;-71
2022/01/14 03:10:39;;;;;;;4.82;2.13;;;14.20;63.80;;;;;;5012438;28;20412;-71
2022/01/14 03:13:06;;;;;;;4.75;2.30;;;14.30;64.80;;;;;;5016860;28;20128;-71
2022/01/14 03:15:32;;;;;;;3.95;2.15;;;14.30;60.20;;;;;;5031090;28;20125;-71
2022/01/14 03:17:59;;;;;;;3.50;2.40;;;14.30;64.90;;;;;;5031512;28;20064;-71
2022/01/14 03:20:45;;;;;;;2.70;1.95;;;14.40;64.90;;;;;;5031343;28;20140;-71
2022/01/14 03:23:14;;;;;;;3.38;2.20;;;;;;;;;;5031318;28;20149;-71
2022/01/14 03:25:52;;;;;;;4.22;2.22;;;15.30;57.00;;;;;;5032521;28;20417;-71
2022/01/14 03:28:20;;;;;;;4.22;2.42;;;13.90;59.90;;;;;;5031464;28;20080;-71
2022/01/14 03:30:47;;;;;;;2.88;2.03;;;14.20;60.00;;;;;;5031536;28;20069;-71
2022/01/14 03:33:13;;;;;;;3.40;2.20;;;13.80;64.30;;;;;;5032540;28;20494;-71
2022/01/14 03:35:40;;;;;;;4.10;2.70;;;;;;;;;;5030858;28;20144;-71
2022/01/14 03:38:07;;;;;;;4.15;2.60;;;14.30;64.50;;;;;;5031183;28;20569;-71
2022/01/14 03:40:34;;;;;;;3.65;2.13;;;14.40;64.80;;;;;;5031338;28;20140;-71
2022/01/14 03:43:02;;;;;;;5.28;2.40;;;14.40;56.30;;;;;;5031252;28;20049;-70
2022/01/14 03:45:29;;;;;;;4.20;2.20;;;;;;;;;;5030865;28;20053;-71
2022/01/14 03:47:56;;;;;;;3.30;2.30;;;13.80;64.30;;;;;;5031207;28;20084;-71
2022/01/14 03:50:25;;;;;;;4.68;2.38;;;;;;;;;;5030562;28;20153;-71
2022/01/14 03:52:51;;;;;;;5.60;2.33;;;14.40;60.40;;;;;;5021487;28;20402;-71
2022/01/14 03:55:18;;;;;;;3.15;2.13;;;13.90;64.10;;;;;;5011284;28;20133;-71
2022/01/14 03:57:45;;;;;;;3.72;2.30;;;15.20;64.80;;;;;;5010948;28;20077;-71
2022/01/14 04:00:14;;;;;;;4.07;2.20;;;14.10;56.10;;;;;;5011161;28;20505;-71
2022/01/14 04:02:41;;;;;;;4.20;2.67;;;;;;;;;;5011252;28;20133;-71
2022/01/14 04:05:09;;;;;;;4.97;2.65;;;14.70;60.30;;;;;;5011404;28;20570;-71
2022/01/14 04:07:36;;;;;;;3.00;2.20;;;;;;;;;;5010983;28;20128;-71
2022/01/14 04:10:03;;;;;;;4.80;2.22;;;14.50;64.60;;;;;;5011038;28;20054;-71
2022/01/14 04:12:44;;;;;;;4.05;2.50;;;13.90;63.90;;;;;;5011290;28;20045;-71
2022/01/14 04:17:57;;;;;;;3.67;2.50;;;14.60;64.80;;;;;;5010881;28;20054;-71
2022/01/14 04:20:24;;;;;;;4.13;2.33;;;;;;;;;;5010980;28;20133;-71
2022/01/14 04:22:51;;;;;;;4.30;2.20;;;14.50;64.60;;;;;;5011958;28;20049;-71
2022/01/14 04:25:18;;;;;;;4.93;2.20;;;;;;;;;;5011980;28;20053;-71
2022/01/14 04:27:45;;;;;;;4.25;2.40;;;14.00;64.10;;;;;;5010003;28;20221;-71
2022/01/14 04:30:13;;;;;;;4.03;2.10;;;14.50;64.30;;;;;;5011752;28;20052;-71
2022/01/14 04:32:40;;;;;;;3.60;2.58;;;;;;;;;;5010784;28;20160;-71
2022/01/14 04:35:08;;;;;;;2.35;1.85;;;14.50;63.70;;;;;;5010866;28;20056;-71
2022/01/14 04:37:34;;;;;;;3.53;2.17;;;14.50;59.00;;;;;;5011841;28;20103;-71
2022/01/14 04:40:01;;;;;;;4.00;2.58;;;14.50;60.20;;;;;;5010633;28;20054;-71
2022/01/14 04:42:28;;;;;;;4.85;2.20;;;14.50;64.30;;;;;;5011903;28;20046;-71
2022/01/14 04:44:56;;;;;;;4.68;2.40;;;14.60;64.60;;;;;;5010820;28;20096;-71
2022/01/14 04:47:32;;;;;;;2.85;2.03;;;14.20;64.10;;;;;;5011617;28;20467;-71
2022/01/14 04:49:59;;;;;;;4.28;2.17;;;14.50;63.30;;;;;;5011655;28;20081;-71
2022/01/14 04:52:27;;;;;;;3.83;2.20;;;14.50;56.10;;;;;;5017925;28;20114;-71
2022/01/14 04:54:53;;;;;;;3.72;2.30;;;14.50;57.10;;;;;;5031719;28;20046;-71
2022/01/14 04:57:21;;;;;;;4.50;2.40;;;15.40;64.80;;;;;;5029277;28;20140;-71
2022/01/14 04:59:48;;;;;;;3.40;2.30;;;14.50;64.30;;;;;;5030229;28;20049;-71
2022/01/14 05:02:15;;;;;;;6.15;2.80;;;;;;;;;;5030103;28;20160;-71
2022/01/14 05:04:45;;;;;;;3.80;2.17;;;14.50;56.10;;;;;;5031590;28;20093;-71
2022/01/14 05:07:21;;;;;;;3.67;2.25;;;14.50;64.50;;;;;;5031077;28;20449;-71
2022/01/14 05:09:57;;;;;;;3.15;2.10;;;14.60;64.20;;;;;;5030324;28;20061;-71
2022/01/14 05:12:24;;;;;;;3.47;2.17;;;14.60;64.20;;;;;;5029890;28;20084;-71
2022/01/14 05:14:50;;;;;;;4.53;2.33;;;14.50;64.20;;;;;;5030145;28;20094;-71
2022/01/14 05:17:17;;;;;;;3.63;2.33;;;;;;;;;;5030375;28;20055;-71
2022/01/14 05:19:45;;;;;;;4.70;2.40;;;14.10;63.90;;;;;;5030110;28;20561;-71
2022/01/14 05:22:12;;;;;;;4.18;2.15;;;14.50;64.00;;;;;;5031190;28;20056;-71
2022/01/14 05:24:39;;;;;;;4.10;2.50;;;14.50;64.00;;;;;;5029960;28;20132;-71
2022/01/14 05:27:06;;;;;;;2.85;2.00;;;14.60;61.70;;;;;;5030083;28;20068;-71
2022/01/14 05:29:33;;;;;;;3.55;2.40;;;14.10;63.90;;;;;;5030316;28;20152;-71
2022/01/14 05:32:03;;;;;;;4.18;2.40;;;;;;;;;;5029940;28;20340;-71
2022/01/14 05:34:30;;;;;;;3.40;2.03;;;;;;;;;;5030250;28;20057;-71
2022/01/14 05:36:58;;;;;;;3.65;2.05;;;14.50;64.10;;;;;;5029927;28;20064;-71
2022/01/14 05:39:25;;;;;;;2.92;2.42;;;14.50;64.30;;;;;;5033687;28;20137;-71
2022/01/14 05:41:52;;;;;;;4.60;2.38;;;;;;;;;;5033059;28;20046;-71
2022/01/14 05:44:19;;;;;;;3.63;2.30;;;14.40;64.30;;;;;;5033221;28;20060;-71
2022/01/14 05:46:46;;;;;;;3.63;2.28;;;;;;;;;;5033264;28;20156;-71
2022/01/14 05:49:13;;;;;;;3.20;2.30;;;;;;;;;;5033374;28;20136;-71
2022/01/14 05:51:40;;;;;;;5.18;2.42;;;;;;;;;;5033284;28;20059;-71
2022/01/14 05:54:08;;;;;;;3.15;2.08;;;14.30;64.20;;;;;;5033283;28;20463;-71
2022/01/14 05:56:35;;;;;;;3.95;2.42;;;14.60;64.10;;;;;;5033066;28;20564;-71
2022/01/14 05:59:02;;;;;;;4.03;2.58;;;;;;;;;;5033246;28;20128;-71
2022/01/14 06:01:30;;;;;;;5.47;2.50;;;14.70;64.30;;;;;;5032922;28;20132;-71
2022/01/14 06:03:57;;;;;;;3.67;2.08;;;14.50;64.10;;;;;;5034125;28;20158;-71
2022/01/14 06:06:24;;;;;;;4.45;2.20;;;14.60;64.00;;;;;;5033163;28;20061;-71
2022/01/14 06:08:51;;;;;;;4.50;2.80;;;;;;;;;;5033214;28;20156;-71
2022/01/14 06:11:19;;;;;;;5.03;2.40;;;14.60;56.00;;;;;;5032534;28;20140;-71
2022/01/14 06:13:46;;;;;;;3.80;2.50;;;14.70;60.30;;;;;;5033124;28;20075;-71
2022/01/14 06:16:13;;;;;;;4.68;2.38;;;14.50;61.80;;;;;;5033703;28;20561;-71
2022/01/14 06:18:40;;;;;;;5.18;2.40;;;14.00;63.80;;;;;;5032987;28;20053;-71
2022/01/14 06:21:07;;;;;;;4.13;2.20;;;;;;;;;;5034256;28;20148;-71
2022/01/14 06:23:34;;;;;;;4.57;2.28;;;14.70;64.20;;;;;;5032728;28;20406;-71
2022/01/14 06:26:01;;;;;;;2.85;2.10;;;;;;;;;;5032523;28;20136;-71
2022/01/14 06:28:29;;;;;;;2.92;2.10;;;14.80;58.10;;;;;;5032706;28;20059;-71
2022/01/14 06:30:55;;;;;;;4.32;2.30;;;14.70;62.50;;;;;;5032470;28;20132;-70
2022/01/14 06:33:22;;;;;;;6.03;2.40;;;14.10;64.00;;;;;;5033733;28;20059;-70
2022/01/14 06:35:50;;;;;;;3.75;2.20;;;;;;;;;;5032412;28;20145;-71
2022/01/14 06:38:17;;;;;;;4.68;2.88;;;14.70;64.20;;;;;;5032199;28;20054;-71
2022/01/14 06:40:46;;;;;;;4.82;2.60;;;14.60;58.60;;;;;;5032424;28;20057;-70
2022/01/14 06:43:13;;;;;;;3.03;2.03;;;14.20;63.80;;;;;;5032701;28;20535;-71
2022/01/14 06:45:41;;;;;;;4.57;2.40;;;15.90;57.70;;;;;;5032269;28;20069;-71
2022/01/14 06:48:11;;;;;;;3.50;2.05;;;14.60;64.20;;;;;;5033607;28;20128;-71
2022/01/14 06:50:38;;;;;;;5.15;2.58;;;;;;;;;;5032308;28;20145;-70
2022/01/14 06:53:04;;;;;;;3.60;2.40;;;14.60;64.10;;;;;;5031667;28;20129;-71
2022/01/14 06:55:31;;;;;;;4.03;2.33;;;14.70;64.40;;;;;;5032003;28;20561;-71
2022/01/14 06:57:58;;;;;;;4.53;2.70;;;;;;;;;;5031313;28;20144;-71
2022/01/14 07:00:25;;;;;;;3.15;2.40;;;;;;;;;;5031936;28;20140;-71
2022/01/14 07:02:53;;;;;;;5.93;2.58;;;14.60;55.90;;;;;;5031522;28;20588;-71
2022/01/14 07:05:20;;;;;;;3.67;2.30;;;;;;;;;;5030018;28;20055;-71
2022/01/14 07:07:47;;;;;;;5.22;3.05;;;;;;;;;;5032498;28;20045;-71
2022/01/14 07:10:15;;;;;;;4.95;2.60;;;;;;;;;;5031747;28;20559;-71
2022/01/14 07:12:42;;;;;;;4.75;2.90;;;14.60;64.10;;;;;;5031459;28;20133;-71
2022/01/14 07:15:11;;;;;;;5.22;2.78;;;14.60;55.90;;;;;;5032449;28;20136;-72
2022/01/14 07:17:37;;;;;;;3.67;2.28;;;14.50;60.70;;;;;;5031339;28;20053;-71
2022/01/14 07:20:10;;;;;;;4.47;2.38;;;14.60;56.00;;;;;;5032381;28;20575;-71
2022/01/14 07:22:37;;;;;;;5.70;2.80;;;;;;;;;;5032469;28;20075;-71
2022/01/14 07:25:05;;;;;;;4.05;2.50;;;14.60;64.10;;;;;;5031034;28;20049;-71
2022/01/14 07:27:32;;;;;;;3.83;2.40;;;14.60;64.30;;;;;;5031928;28;20067;-71
2022/01/14 07:29:59;;;;;;;4.63;2.65;;;;;;;;;;5031350;28;20063;-71
2022/01/14 07:32:25;;;;;;;4.25;2.35;;;14.60;64.30;;;;;;5028645;28;20132;-71
2022/01/14 07:34:52;;;;;;;5.03;2.67;;;15.40;64.50;;;;;;5031869;28;20133;-71
2022/01/14 07:37:20;;;;;;;5.18;2.70;;;14.50;62.80;;;;;;5032539;28;20136;-72
2022/01/14 07:39:47;;;;;;;8.30;2.25;;;14.40;60.20;;;;;;5031537;28;20080;-72
2022/01/14 07:42:14;;;;;;;5.25;2.47;;;14.50;64.00;;;;;;5030716;28;20084;-72
2022/01/14 07:44:41;;;;;;;3.75;2.30;;;14.00;63.70;;;;;;5031265;28;20092;-73
2022/01/14 07:47:07;;;;;;;4.20;2.53;;;14.60;60.90;;;;;;5031261;28;20107;-72
2022/01/14 07:49:34;;;;;;;9.30;2.92;;;14.70;64.30;;;;;;5031550;28;20165;-73
2022/01/14 07:52:01;;;;;;;5.85;2.70;;;;;;;;;;5026999;28;20499;-72
2022/01/14 07:54:29;;;;;;;7.25;2.83;;;14.10;63.70;;;;;;5012705;28;20137;-72
2022/01/14 07:56:57;;;;;;;5.70;2.50;;;14.70;64.20;;;;;;5011550;28;20546;-73
2022/01/14 07:59:25;;;;;;;6.13;2.45;;;14.60;64.20;;;;;;5011982;28;20513;-73
2022/01/14 08:01:54;;;;;;;5.22;2.33;;;14.70;64.10;;;;;;5011041;28;20140;-73
2022/01/14 08:04:22;;;;;;;3.85;2.40;;;;;;;;;;5011694;28;20060;-73
2022/01/14 08:06:51;;;;;;;4.03;2.50;;;14.80;64.10;;;;;;5011401;28;20129;-72
2022/01/14 08:09:18;;;;;;;5.38;2.63;;;;;;;;;;5011774;28;20157;-72
2022/01/14 08:11:46;;;;;;;4.93;2.30;;;14.80;64.10;;;;;;5011368;28;20137;-73
2022/01/14 08:14:13;;;;;;;6.90;2.40;;;14.10;60.90;;;;;;5011650;28;20054;-72
2022/01/14 08:16:40;;;;;;;3.63;2.15;;;;;;;;;;5011310;28;20129;-70
2022/01/14 08:19:07;;;;;;;4.43;2.45;;;15.70;64.20;;;;;;5011389;28;20058;-70
2022/01/14 08:21:33;;;;;;;6.43;2.42;;;14.80;64.00;;;;;;5011119;28;20085;-70
2022/01/14 08:24:00;;;;;;;6.57;2.40;;;14.50;57.60;;;;;;5011284;28;20049;-71
2022/01/14 08:26:27;;;;;;;5.43;2.40;;;15.00;63.80;;;;;;5010891;28;20136;-70
2022/01/14 08:28:55;;;;;;;4.50;2.33;;;15.10;64.10;;;;;;5010937;28;20136;-70
2022/01/14 08:31:23;;;;;;;4.80;2.25;;;15.00;64.20;;;;;;5022460;28;20144;-70
2022/01/14 08:33:50;;;;;;;6.03;2.10;;;15.00;59.00;;;;;;5031077;28;20061;-71
2022/01/14 08:36:16;;;;;;;5.97;2.20;;;15.00;57.80;;;;;;5030582;28;20165;-71
2022/01/14 08:38:43;;;;;;;4.97;2.45;;;14.30;63.30;;;;;;5030695;28;20140;-70
2022/01/14 08:41:10;;;;;;;4.78;2.30;;;15.00;64.10;;;;;;5030634;28;20160;-70
2022/01/14 08:43:37;;;;;;;4.45;2.30;;;;;;;;;;5031540;28;20154;-72
2022/01/14 08:46:05;;;;;;;3.83;2.13;;;15.10;64.10;;;;;;5030325;28;20053;-70
2022/01/14 08:48:32;;;;;;;6.63;2.88;;;14.50;63.50;;;;;;5030583;28;20136;-73
2022/01/14 08:50:59;;;;;;;7.50;2.47;;;;;;;;;;5030730;28;20140;-71
2022/01/14 08:53:26;;;;;;;9.23;2.70;;;15.10;63.70;;;;;;5030356;28;20140;-72
2022/01/14 08:55:52;;;;;;;10.55;2.92;;;15.20;64.00;;;;;;5030925;28;20600;-72
2022/01/14 08:58:19;;;;;;;9.30;3.25;;;;;;;;;;5030381;28;20052;-73
2022/01/14 09:00:48;;;;;;;12.88;3.47;;;;;;;;;;5028819;28;20584;-73
2022/01/14 09:03:16;;;;;;;10.68;3.47;;;15.10;57.50;;;;;;5028508;28;20498;-74
2022/01/14 09:05:43;;;;;;;14.23;3.90;;;15.00;59.00;;;;;;5029215;28;20053;-74
2022/01/14 09:08:10;;;;;;;8.45;3.38;;;;;;;;;;5028234;28;20129;-74
2022/01/14 09:10:37;;;;;;;10.63;3.42;;;15.20;57.10;;;;;;5028455;28;20509;-74
2022/01/14 09:13:04;;;;;;;13.43;3.53;;;;;;;;;;5030350;28;20060;-74
2022/01/14 09:15:31;;;;;;;9.95;3.05;;;;;;;;;;5032738;28;20133;-74
2022/01/14 09:17:58;;;;;;;9.52;3.13;;;15.10;56.80;;;;;;5033356;28;20059;-73
2022/01/14 09:20:27;;;;;;;6.72;2.72;;;15.30;63.80;;;;;;5031321;28;20135;-73
2022/01/14 09:22:57;;;;;;;7.55;2.90;;;15.10;63.50;;;;;;5034138;28;20132;-73
2022/01/14 09:25:24;;;;;;;8.25;3.40;;;;;;;;;;5033133;28;20409;-73
2022/01/14 09:27:52;;;;;;;8.07;3.17;;;;;;;;;;5033733;28;20165;-73
2022/01/14 09:30:19;;;;;;;8.73;2.88;;;15.20;63.90;;;;;;5033772;28;20108;-73
2022/01/14 09:32:46;;;;;;;9.55;3.10;;;;;;;;;;5033453;28;20485;-73
2022/01/14 09:35:13;;;;;;;8.68;2.90;;;14.40;63.10;;;;;;5033570;28;20128;-73
2022/01/14 09:37:41;;;;;;;8.48;2.92;;;15.30;56.20;;;;;;5033319;28;20049;-73
2022/01/14 09:40:09;;;;;;;8.57;2.92;;;15.30;55.50;;;;;;5033585;28;20092;-73
2022/01/14 09:42:36;;;;;;;7.72;3.08;;;14.90;63.30;;;;;;5033310;28;20132;-73
2022/01/14 09:45:03;;;;;;;7.03;2.90;;;;;;;;;;5033424;28;20088;-73
2022/01/14 09:47:30;;;;;;;6.70;2.55;;;15.40;63.70;;;;;;5033147;28;20140;-73
2022/01/14 09:49:56;;;;;;;5.43;2.60;;;15.30;56.70;;;;;;5033872;28;20132;-73
2022/01/14 09:52:23;;;;;;;4.38;2.33;;;16.10;64.20;;;;;;5033717;28;20132;-73
2022/01/14 09:54:51;;;;;;;9.73;2.85;;;15.30;55.40;;;;;;5033890;28;20460;-73
2022/01/14 09:57:18;;;;;;;5.40;2.67;;;15.50;63.90;;;;;;5033663;28;20487;-73
2022/01/14 09:59:45;;;;;;;5.10;2.47;;;15.90;61.20;;;;;;5033712;28;20049;-73
2022/01/14 10:02:30;;;;;;;7.93;2.60;;;15.10;63.60;;;;;;5033304;28;20092;-73
2022/01/14 10:04:57;;;;;;;;;;;15.30;56.00;;;;;;5033958;28;20566;-73
2022/01/14 10:07:24;;;;;;;5.32;2.45;;;15.40;63.70;;;;;;5033171;28;20016;-73
2022/01/14 10:09:57;;;;;;;7.13;2.30;;;15.30;55.60;;;;;;5032351;28;20138;-73
2022/01/14 10:12:24;;;;;;;5.50;2.47;;;15.80;60.40;;;;;;5031949;28;20057;-72
2022/01/14 10:14:55;;;;;;;6.68;2.50;;;15.30;63.50;;;;;;5030207;28;20132;-73
2022/01/14 10:17:23;;;;;;;6.20;2.30;;;16.30;64.10;;;;;;5029497;28;20145;-72
2022/01/14 10:19:49;;;;;;;5.05;2.20;;;15.40;62.50;;;;;;5022398;28;20136;-73
2022/01/14 10:22:24;;;;;;;6.22;2.53;;;15.30;63.60;;;;;;5013035;28;20148;-71
2022/01/14 10:24:56;;;;;;;5.43;1.98;;;14.40;63.20;;;;;;5016812;28;20128;-72
2022/01/14 10:27:36;;;;;;;5.93;2.20;;;15.40;63.90;;;;;;5024173;28;20062;-72
2022/01/14 10:30:11;;;;;;;4.28;2.03;;;15.40;63.90;;;;;;5012687;28;20137;-73
2022/01/14 10:32:38;;;;;;;6.45;2.40;;;16.00;57.80;;;;;;5014525;28;20048;-72
2022/01/14 10:35:05;;;;;;;5.32;2.00;;;15.40;63.70;;;;;;5013030;28;20050;-72
2022/01/14 10:37:33;;;;;;;4.13;2.05;;;14.50;63.40;;;;;;5012939;28;20391;-71
2022/01/14 10:40:02;;;;;;;5.00;2.25;;;15.20;63.20;;;;;;5012900;28;20050;-73
2022/01/14 10:42:29;;;;;;;5.25;2.10;;;14.90;64.30;;;;;;5012110;28;20061;-73
2022/01/14 10:44:57;;;;;;;4.97;2.13;;;15.40;60.30;;;;;;5012581;28;20056;-73
2022/01/14 10:47:24;;;;;;;4.00;1.90;;;15.50;63.60;;;;;;5012584;28;20077;-73
2022/01/14 10:49:54;;;;;;;3.50;1.75;;;15.30;58.70;;;;;;5012346;28;20129;-73
2022/01/14 10:52:22;;;;;;;4.47;2.08;;;15.30;63.80;;;;;;5018191;28;20137;-73
2022/01/14 10:54:50;;;;;;;4.00;2.00;;;15.40;63.60;;;;;;5026135;28;20128;-73
2022/01/14 10:57:19;;;;;;;3.40;1.80;;;15.30;63.60;;;;;;5013266;28;20141;-72
2022/01/14 10:59:47;;;;;;;3.45;1.70;;;15.30;55.70;;;;;;5018148;28;20422;-72
2022/01/14 11:02:36;;;;;;;3.22;1.65;;;15.40;63.60;;;;;;5024082;28;20100;-72
2022/01/14 11:05:11;;;;;;;5.10;1.90;;;15.30;55.70;;;;;;5022060;28;20049;-72
2022/01/14 11:07:38;;;;;;;4.75;1.95;;;15.30;64.30;;;;;;5015614;28;20487;-72
2022/01/14 11:10:17;;;;;;;3.55;1.80;;;15.30;63.70;;;;;;5016025;28;20149;-72
2022/01/14 11:12:45;;;;;;;5.68;1.80;;;14.40;63.30;;;;;;5016085;28;20059;-72
2022/01/14 11:15:12;;;;;;;2.20;1.63;;;15.40;64.00;;;;;;5023614;28;20137;-73
2022/01/14 11:17:40;;;;;;;4.65;2.10;;;15.40;60.80;;;;;;5014769;28;20124;-72
2022/01/14 11:20:09;;;;;;;3.03;1.73;;;15.20;55.80;;;;;;5017322;28;20465;-70
2022/01/14 11:25:20;;;;;;;5.47;2.03;;;15.30;63.80;;;;;;5022596;28;20085;-72
2022/01/14 11:27:50;;;;;;;4.28;1.90;;;15.80;56.20;;;;;;5014957;28;20049;-72
2022/01/14 11:30:17;;;;;;;4.55;2.00;;;;;;;;;;5029329;28;20120;-73
2022/01/14 11:32:54;;;;;;;3.92;1.73;;;15.20;63.80;;;;;;5030738;28;20220;-72
2022/01/14 11:35:21;;;;;;;3.85;1.70;;;;;;;;;;5030649;28;20077;-72
2022/01/14 11:37:48;;;;;;;4.97;1.90;;;15.30;57.10;;;;;;5029234;28;20053;-72
2022/01/14 11:40:15;;;;;;;5.13;2.00;;;;;;;;;;5029441;28;20124;-74
2022/01/14 11:42:43;;;;;;;3.38;1.80;;;15.20;55.90;;;;;;5028784;28;20064;-71
2022/01/14 11:45:12;;;;;;;4.63;1.85;;;14.50;63.50;;;;;;5030537;28;20052;-72
2022/01/14 11:48:04;;;;;;;3.10;1.70;;;15.20;56.00;;;;;;5030836;28;20049;-72
2022/01/14 11:50:46;;;;;;;2.90;1.67;;;15.20;64.30;;;;;;5030620;28;20049;-72
2022/01/14 11:53:32;;;;;;;3.50;1.70;;;15.30;64.10;;;;;;5027011;28;20046;-71
2022/01/14 11:55:59;;;;;;;2.63;1.58;;;16.00;64.70;;;;;;5030645;28;20046;-71
2022/01/14 11:58:26;;;;;;;3.75;1.70;;;15.10;57.50;;;;;;5030962;28;20053;-70
2022/01/14 12:00:54;;;;;;;3.53;1.55;;;14.80;63.80;;;;;;5030864;28;20049;-71
2022/01/14 12:03:28;;;;;;;6.90;1.98;;;15.10;64.30;;;;;;5032398;28;20053;-70
2022/01/14 12:05:56;;;;;;;7.07;1.92;;;15.20;64.40;;;;;;5031940;28;20048;-71
2022/01/14 12:08:24;;;;;;;9.00;2.00;;;15.20;59.60;;;;;;5031587;28;20049;-72
2022/01/14 12:11:24;;;;;;;4.38;1.73;;;15.30;64.40;;;;;;5030922;28;20494;-71
2022/01/14 12:13:55;;;;;;;6.80;2.10;;;14.40;63.70;;;;;;5025006;28;20058;-72
2022/01/14 12:17:00;;;;;;;4.07;1.83;;;14.50;63.90;;;;;;5029400;28;20049;-72
2022/01/14 12:19:28;;;;;;;5.47;2.03;;;14.90;60.30;;;;;;5027951;28;20132;-72
2022/01/14 12:21:59;;;;;;;5.05;1.60;;;15.30;64.20;;;;;;5029801;28;20558;-71
2022/01/14 12:24:34;;;;;;;6.43;2.00;;;15.30;56.00;;;;;;5029278;28;20502;-71
2022/01/14 12:27:33;;;;;;;4.90;1.70;;;14.30;62.40;;;;;;5029742;28;20057;-71
2022/01/14 12:30:18;;;;;;;3.67;1.73;;;14.40;63.90;;;;;;5029039;28;20061;-71
2022/01/14 12:32:49;;;;;;;5.75;2.15;;;15.40;64.00;;;;;;5027423;28;20464;-71
2022/01/14 12:35:17;;;;;;;6.00;1.80;;;15.30;56.30;;;;;;5030295;28;20061;-72
2022/01/14 12:37:46;;;;;;;6.30;1.75;;;14.80;63.70;;;;;;5029527;28;20543;-71
2022/01/14 12:40:14;;;;;;;3.90;1.77;;;15.30;55.90;;;;;;5030537;28;20495;-71
2022/01/14 12:42:42;;;;;;;2.95;1.60;;;15.30;55.90;;;;;;5030775;28;20140;-71
2022/01/14 12:45:11;;;;;;;5.40;1.83;;;15.30;63.90;;;;;;5029380;28;20425;-71
2022/01/14 12:47:40;;;;;;;3.80;1.58;;;15.40;64.10;;;;;;5032152;28;20050;-71
2022/01/14 12:50:10;;;;;;;4.00;1.90;;;15.30;55.90;;;;;;5018017;28;20068;-71
2022/01/14 12:52:46;;;;;;;7.50;1.70;;;15.30;55.90;;;;;;5034714;28;20148;-71
2022/01/14 12:55:13;;;;;;;3.13;1.40;;;15.20;55.90;;;;;;5034388;28;20156;-71
2022/01/14 12:57:40;;;;;;;2.95;1.45;;;15.30;63.70;;;;;;5034433;28;20140;-71
2022/01/14 13:00:07;;;;;;;3.33;1.60;;;15.30;63.90;;;;;;5034331;28;20088;-72
2022/01/14 13:02:34;;;;;;;3.10;1.60;;;15.40;63.70;;;;;;5034037;28;20053;-72
2022/01/14 13:05:02;;;;;;;5.72;2.22;;;14.70;63.40;;;;;;5033671;28;20132;-72
2022/01/14 13:07:30;;;;;;;8.02;1.77;;;14.70;63.70;;;;;;5034157;28;20129;-72
2022/01/14 13:09:57;;;;;;;4.53;1.70;;;16.20;64.20;;;;;;5033909;28;20060;-72
2022/01/14 13:12:28;;;;;;;3.42;1.65;;;15.30;60.30;;;;;;5033748;28;20136;-72
2022/01/14 13:14:59;;;;;;;4.55;2.00;;;15.40;63.80;;;;;;5033959;28;20062;-72
2022/01/14 13:17:27;;;;;;;6.68;1.73;;;15.30;55.80;;;;;;5033781;28;20536;-71
2022/01/14 13:19:57;;;;;;;5.15;1.75;;;14.90;58.30;;;;;;5033862;28;20053;-71
2022/01/14 13:22:24;;;;;;;5.93;1.75;;;15.40;58.80;;;;;;5018533;28;20132;-72
2022/01/14 13:24:53;;;;;;;14.07;6.43;;;15.30;61.40;;;;;;5033145;28;20057;-73
2022/01/14 13:27:21;;;;;;;14.32;5.60;;;15.30;55.90;;;;;;5032134;28;20570;-73
2022/01/14 13:29:49;;;;;;;8.95;4.22;;;15.30;55.90;;;;;;5032030;28;20135;-72
2022/01/14 13:32:17;;;;;;;9.93;3.65;;;13.90;55.10;;;;;;5032602;28;20459;-74
2022/01/14 13:34:45;;;;;;;11.55;4.38;;;15.40;58.90;;;;;;5033222;28;20057;-74
2022/01/14 13:37:12;;;;;;;13.73;4.70;;;;;;;;;;5031150;28;20144;-72
2022/01/14 13:39:39;;;;;;;7.32;4.00;;;15.40;64.20;;;;;;5032372;28;20418;-73
2022/01/14 13:42:20;;;;;;;8.07;4.03;;;15.40;64.20;;;;;;5032957;28;20140;-74